createdAt,value
2018-11-05T00:00:29.137Z,0.00
2018-11-05T00:01:29.133Z,0.00
2018-11-05T00:02:29.127Z,0.00
2018-11-05T00:03:29.141Z,0.00
2018-11-05T00:04:29.153Z,0.00
2018-11-05T00:05:29.126Z,0.00
2018-11-05T00:06:29.118Z,0.00
2018-11-05T00:07:29.118Z,0.00
2018-11-05T00:08:29.114Z,0.00
2018-11-05T00:09:29.138Z,0.00
2018-11-05T00:10:29.103Z,0.00
2018-11-05T00:11:29.106Z,0.00
2018-11-05T00:12:29.102Z,0.00
2018-11-05T00:13:29.098Z,0.00
2018-11-05T00:14:29.126Z,0.00
2018-11-05T00:15:29.094Z,0.00
2018-11-05T00:16:29.090Z,0.00
2018-11-05T00:17:29.086Z,0.00
2018-11-05T00:18:29.079Z,0.00
2018-11-05T00:19:29.109Z,0.00
2018-11-05T00:20:29.079Z,0.00
2018-11-05T00:21:29.075Z,0.00
2018-11-05T00:22:29.075Z,0.00
2018-11-05T00:23:29.098Z,0.00
2018-11-05T00:24:29.066Z,0.00
2018-11-05T00:25:29.071Z,0.00
2018-11-05T00:26:29.059Z,0.00
2018-11-05T00:27:29.067Z,0.00
2018-11-05T00:28:29.083Z,0.00
2018-11-05T00:29:29.057Z,0.00
2018-11-05T00:30:29.051Z,0.00
2018-11-05T00:31:29.048Z,0.00
2018-11-05T00:32:29.044Z,0.00
2018-11-05T00:33:29.073Z,0.00
2018-11-05T00:34:29.040Z,0.00
2018-11-05T00:35:29.040Z,0.00
2018-11-05T00:36:29.031Z,0.00
2018-11-05T00:37:29.032Z,0.00
2018-11-05T00:38:29.054Z,0.00
2018-11-05T00:39:29.024Z,0.00
2018-11-05T00:40:29.020Z,0.00
2018-11-05T00:41:29.020Z,0.00
2018-11-05T00:42:29.022Z,0.00
2018-11-05T00:43:29.040Z,0.00
2018-11-05T00:44:29.011Z,0.00
2018-11-05T00:45:29.014Z,0.00
2018-11-05T00:46:29.004Z,0.00
2018-11-05T00:47:29.000Z,0.00
2018-11-05T00:48:29.032Z,0.00
2018-11-05T00:49:28.997Z,0.00
2018-11-05T00:50:28.988Z,0.00
2018-11-05T00:51:28.985Z,0.00
2018-11-05T00:52:28.988Z,0.00
2018-11-05T00:53:29.012Z,0.00
2018-11-05T00:54:28.977Z,0.00
2018-11-05T00:55:28.984Z,0.00
2018-11-05T00:56:28.976Z,0.00
2018-11-05T00:57:29.007Z,0.00
2018-11-05T00:58:29.261Z,0.00
2018-11-05T00:59:28.966Z,0.00
2018-11-05T01:00:28.966Z,0.00
2018-11-05T01:01:28.961Z,0.00
2018-11-05T01:02:28.954Z,0.00
2018-11-05T01:03:28.979Z,0.00
2018-11-05T01:04:28.981Z,0.00
2018-11-05T01:05:28.948Z,0.00
2018-11-05T01:06:28.951Z,0.00
2018-11-05T01:07:28.942Z,0.00
2018-11-05T01:08:28.942Z,0.00
2018-11-05T01:09:28.978Z,0.00
2018-11-05T01:10:28.933Z,0.00
2018-11-05T01:11:28.932Z,0.00
2018-11-05T01:12:28.927Z,0.00
2018-11-05T01:13:28.926Z,0.00
2018-11-05T01:14:28.948Z,0.00
2018-11-05T01:15:28.918Z,0.00
2018-11-05T01:16:28.916Z,0.00
2018-11-05T01:17:28.919Z,0.00
2018-11-05T01:18:28.911Z,0.00
2018-11-05T01:19:28.934Z,0.00
2018-11-05T01:20:28.903Z,0.00
2018-11-05T01:21:28.899Z,0.00
2018-11-05T01:22:28.929Z,0.00
2018-11-05T01:23:28.895Z,0.00
2018-11-05T01:24:28.891Z,0.00
2018-11-05T01:25:28.917Z,0.00
2018-11-05T01:26:28.883Z,0.00
2018-11-05T01:27:28.883Z,0.00
2018-11-05T01:28:28.879Z,0.00
2018-11-05T01:29:28.873Z,0.00
2018-11-05T01:30:28.901Z,0.00
2018-11-05T01:31:28.867Z,0.00
2018-11-05T01:32:28.867Z,0.00
2018-11-05T01:33:28.866Z,0.00
2018-11-05T01:34:28.863Z,0.00
2018-11-05T01:35:28.887Z,0.00
2018-11-05T01:36:28.855Z,0.00
2018-11-05T01:37:28.852Z,0.00
2018-11-05T01:38:28.850Z,0.00
2018-11-05T01:39:28.844Z,0.00
2018-11-05T01:40:28.866Z,0.00
2018-11-05T01:41:28.846Z,0.00
2018-11-05T01:42:28.836Z,0.00
2018-11-05T01:43:28.831Z,0.00
2018-11-05T01:44:28.828Z,0.00
2018-11-05T01:45:28.856Z,0.00
2018-11-05T01:46:28.828Z,0.00
2018-11-05T01:47:28.823Z,0.00
2018-11-05T01:48:28.816Z,0.00
2018-11-05T01:49:28.821Z,0.00
2018-11-05T01:50:28.840Z,0.00
2018-11-05T01:51:28.808Z,0.00
2018-11-05T01:52:28.804Z,0.00
2018-11-05T01:53:28.804Z,0.00
2018-11-05T01:54:28.800Z,0.00
2018-11-05T01:55:28.821Z,0.00
2018-11-05T01:56:28.789Z,0.00
2018-11-05T01:57:28.793Z,0.00
2018-11-05T01:58:28.784Z,0.00
2018-11-05T01:59:28.789Z,0.00
2018-11-05T02:00:28.811Z,0.00
2018-11-05T02:01:28.780Z,0.00
2018-11-05T02:02:28.773Z,0.00
2018-11-05T02:03:28.783Z,0.00
2018-11-05T02:04:28.768Z,0.00
2018-11-05T02:05:28.795Z,0.00
2018-11-05T02:06:28.765Z,0.00
2018-11-05T02:07:28.761Z,0.00
2018-11-05T02:08:28.761Z,0.00
2018-11-05T02:09:28.753Z,0.00
2018-11-05T02:10:28.871Z,0.00
2018-11-05T02:11:28.745Z,0.00
2018-11-05T02:12:28.748Z,0.00
2018-11-05T02:13:28.859Z,0.00
2018-11-05T02:14:28.737Z,0.00
2018-11-05T02:15:28.758Z,0.00
2018-11-05T02:16:28.732Z,0.00
2018-11-05T02:17:28.724Z,0.00
2018-11-05T02:18:28.733Z,0.00
2018-11-05T02:19:28.721Z,0.00
2018-11-05T02:20:28.745Z,0.00
2018-11-05T02:21:28.717Z,0.00
2018-11-05T02:22:28.709Z,0.00
2018-11-05T02:23:28.705Z,0.00
2018-11-05T02:24:28.701Z,0.00
2018-11-05T02:25:28.730Z,0.00
2018-11-05T02:26:28.697Z,0.00
2018-11-05T02:27:28.694Z,0.00
2018-11-05T02:28:28.697Z,0.00
2018-11-05T02:29:28.686Z,0.00
2018-11-05T02:30:28.721Z,0.00
2018-11-05T02:31:28.679Z,0.00
2018-11-05T02:32:28.678Z,0.00
2018-11-05T02:33:28.671Z,0.00
2018-11-05T02:34:28.672Z,0.00
2018-11-05T02:35:28.703Z,0.00
2018-11-05T02:36:28.684Z,0.00
2018-11-05T02:37:28.659Z,0.00
2018-11-05T02:38:28.651Z,0.00
2018-11-05T02:39:28.655Z,0.00
2018-11-05T02:40:28.679Z,0.00
2018-11-05T02:41:28.643Z,0.00
2018-11-05T02:42:28.642Z,0.00
2018-11-05T02:43:28.639Z,0.00
2018-11-05T02:44:28.637Z,0.00
2018-11-05T02:45:28.659Z,0.00
2018-11-05T02:46:28.627Z,0.00
2018-11-05T02:47:28.626Z,0.00
2018-11-05T02:48:28.665Z,0.00
2018-11-05T02:49:28.621Z,0.00
2018-11-05T02:50:28.647Z,0.00
2018-11-05T02:51:28.613Z,0.00
2018-11-05T02:52:28.613Z,0.00
2018-11-05T02:53:28.604Z,0.00
2018-11-05T02:54:28.599Z,0.00
2018-11-05T02:55:28.632Z,0.00
2018-11-05T02:56:28.589Z,0.00
2018-11-05T02:57:28.604Z,0.00
2018-11-05T02:58:28.584Z,0.00
2018-11-05T02:59:28.583Z,0.00
2018-11-05T03:00:28.604Z,0.00
2018-11-05T03:01:28.571Z,0.00
2018-11-05T03:02:28.574Z,0.00
2018-11-05T03:03:28.571Z,0.00
2018-11-05T03:04:28.560Z,0.00
2018-11-05T03:05:28.584Z,0.00
2018-11-05T03:06:28.549Z,0.00
2018-11-05T03:07:28.549Z,0.00
2018-11-05T03:08:28.545Z,0.00
2018-11-05T03:09:28.542Z,0.00
2018-11-05T03:10:28.565Z,0.00
2018-11-05T03:11:28.533Z,0.00
2018-11-05T03:12:28.536Z,0.00
2018-11-05T03:13:28.529Z,0.00
2018-11-05T03:14:28.525Z,0.00
2018-11-05T03:15:28.555Z,0.00
2018-11-05T03:16:28.517Z,0.00
2018-11-05T03:17:28.510Z,0.00
2018-11-05T03:18:28.510Z,0.00
2018-11-05T03:19:28.503Z,0.00
2018-11-05T03:20:28.536Z,0.00
2018-11-05T03:21:28.507Z,0.00
2018-11-05T03:22:28.492Z,0.00
2018-11-05T03:23:28.484Z,0.00
2018-11-05T03:24:28.479Z,0.00
2018-11-05T03:25:28.516Z,0.00
2018-11-05T03:26:28.475Z,0.00
2018-11-05T03:27:28.472Z,0.00
2018-11-05T03:28:28.463Z,0.00
2018-11-05T03:29:28.491Z,0.00
2018-11-05T03:30:28.460Z,0.00
2018-11-05T03:31:28.456Z,0.00
2018-11-05T03:32:28.453Z,0.00
2018-11-05T03:33:28.445Z,0.00
2018-11-05T03:34:28.473Z,0.00
2018-11-05T03:35:28.453Z,0.00
2018-11-05T03:36:28.432Z,0.00
2018-11-05T03:37:28.429Z,0.00
2018-11-05T03:38:28.424Z,0.00
2018-11-05T03:39:28.454Z,0.00
2018-11-05T03:40:28.417Z,0.00
2018-11-05T03:41:28.410Z,0.00
2018-11-05T03:42:28.409Z,0.00
2018-11-05T03:43:28.403Z,0.00
2018-11-05T03:44:28.430Z,0.00
2018-11-05T03:45:28.393Z,0.00
2018-11-05T03:46:28.392Z,0.00
2018-11-05T03:47:28.388Z,0.00
2018-11-05T03:48:28.385Z,0.00
2018-11-05T03:49:28.413Z,0.00
2018-11-05T03:50:28.374Z,0.00
2018-11-05T03:51:28.372Z,0.00
2018-11-05T03:52:28.370Z,0.00
2018-11-05T03:53:28.365Z,0.00
2018-11-05T03:54:28.384Z,0.00
2018-11-05T03:55:30.417Z,0.00
2018-11-05T03:56:28.374Z,0.00
2018-11-05T03:57:28.362Z,0.00
2018-11-05T03:58:28.372Z,0.00
2018-11-05T03:59:28.336Z,0.00
2018-11-05T04:00:28.360Z,0.00
2018-11-05T04:01:28.329Z,0.00
2018-11-05T04:02:28.326Z,0.00
2018-11-05T04:03:28.351Z,0.00
2018-11-05T04:04:28.344Z,0.00
2018-11-05T04:05:28.313Z,0.00
2018-11-05T04:06:28.304Z,0.00
2018-11-05T04:07:28.300Z,0.00
2018-11-05T04:08:28.296Z,0.00
2018-11-05T04:09:28.318Z,0.00
2018-11-05T04:10:28.288Z,0.00
2018-11-05T04:11:28.286Z,0.00
2018-11-05T04:12:28.286Z,0.00
2018-11-05T04:13:28.276Z,0.00
2018-11-05T04:14:28.300Z,0.00
2018-11-05T04:15:28.323Z,0.00
2018-11-05T04:16:28.262Z,0.00
2018-11-05T04:17:28.265Z,0.00
2018-11-05T04:18:28.281Z,0.00
2018-11-05T04:19:28.266Z,0.00
2018-11-05T04:20:28.246Z,0.00
2018-11-05T04:21:28.244Z,0.00
2018-11-05T04:22:28.237Z,0.00
2018-11-05T04:23:28.261Z,0.00
2018-11-05T04:24:28.254Z,0.00
2018-11-05T04:25:28.226Z,0.00
2018-11-05T04:26:28.219Z,0.00
2018-11-05T04:27:28.231Z,0.00
2018-11-05T04:28:28.237Z,0.00
2018-11-05T04:29:28.206Z,0.00
2018-11-05T04:30:28.201Z,0.00
2018-11-05T04:31:28.203Z,0.00
2018-11-05T04:32:28.200Z,0.00
2018-11-05T04:33:28.222Z,0.00
2018-11-05T04:34:28.189Z,0.00
2018-11-05T04:35:28.178Z,0.00
2018-11-05T04:36:28.185Z,0.00
2018-11-05T04:37:28.170Z,0.00
2018-11-05T04:38:28.195Z,0.00
2018-11-05T04:39:28.163Z,0.00
2018-11-05T04:40:28.158Z,0.00
2018-11-05T04:41:28.154Z,0.00
2018-11-05T04:42:28.151Z,0.00
2018-11-05T04:43:28.170Z,0.00
2018-11-05T04:44:28.136Z,0.00
2018-11-05T04:45:28.137Z,0.00
2018-11-05T04:46:28.133Z,0.00
2018-11-05T04:47:28.126Z,0.00
2018-11-05T04:48:28.151Z,0.00
2018-11-05T04:49:28.116Z,0.00
2018-11-05T04:50:28.131Z,0.00
2018-11-05T04:51:28.115Z,0.00
2018-11-05T04:52:28.136Z,0.00
2018-11-05T04:53:28.097Z,0.00
2018-11-05T04:54:28.099Z,0.00
2018-11-05T04:55:28.091Z,0.00
2018-11-05T04:56:28.086Z,0.00
2018-11-05T04:57:28.117Z,0.00
2018-11-05T04:58:28.072Z,0.00
2018-11-05T04:59:28.074Z,0.00
2018-11-05T05:00:28.067Z,0.00
2018-11-05T05:01:28.064Z,0.00
2018-11-05T05:02:28.088Z,0.00
2018-11-05T05:03:28.062Z,0.00
2018-11-05T05:04:29.016Z,0.00
2018-11-05T05:05:28.044Z,0.00
2018-11-05T05:06:28.044Z,0.00
2018-11-05T05:07:28.064Z,0.00
2018-11-05T05:08:28.029Z,0.00
2018-11-05T05:09:28.028Z,0.00
2018-11-05T05:10:28.020Z,0.00
2018-11-05T05:11:28.045Z,0.00
2018-11-05T05:12:28.009Z,0.00
2018-11-05T05:13:28.036Z,0.00
2018-11-05T05:14:27.999Z,0.00
2018-11-05T05:15:27.999Z,0.00
2018-11-05T05:16:27.995Z,0.00
2018-11-05T05:17:27.988Z,0.00
2018-11-05T05:18:28.012Z,0.00
2018-11-05T05:19:27.981Z,0.00
2018-11-05T05:20:27.975Z,0.00
2018-11-05T05:21:27.968Z,0.00
2018-11-05T05:22:27.975Z,0.00
2018-11-05T05:23:27.987Z,0.00
2018-11-05T05:24:28.612Z,0.00
2018-11-05T05:25:27.950Z,0.00
2018-11-05T05:26:27.947Z,0.00
2018-11-05T05:27:27.974Z,0.00
2018-11-05T05:28:27.936Z,0.00
2018-11-05T05:29:27.929Z,0.00
2018-11-05T05:30:27.946Z,0.00
2018-11-05T05:31:27.925Z,0.00
2018-11-05T05:32:27.956Z,0.00
2018-11-05T05:33:27.984Z,0.00
2018-11-05T05:34:27.907Z,0.00
2018-11-05T05:35:27.901Z,0.00
2018-11-05T05:36:27.897Z,0.00
2018-11-05T05:37:27.891Z,0.00
2018-11-05T05:38:27.915Z,0.00
2018-11-05T05:39:27.881Z,4.00
2018-11-05T05:40:27.877Z,4.00
2018-11-05T05:41:28.032Z,0.00
2018-11-05T05:42:27.869Z,4.00
2018-11-05T05:43:27.899Z,4.00
2018-11-05T05:44:27.854Z,4.00
2018-11-05T05:45:27.853Z,8.00
2018-11-05T05:46:27.849Z,8.00
2018-11-05T05:47:27.845Z,12.00
2018-11-05T05:48:27.869Z,16.00
2018-11-05T05:49:27.832Z,16.00
2018-11-05T05:50:27.829Z,20.00
2018-11-05T05:51:27.824Z,24.00
2018-11-05T05:52:27.853Z,28.00
2018-11-05T05:53:27.818Z,32.00
2018-11-05T05:54:27.815Z,40.00
2018-11-05T05:55:27.806Z,44.00
2018-11-05T05:56:27.802Z,56.00
2018-11-05T05:57:27.834Z,64.00
2018-11-05T05:58:27.794Z,76.00
2018-11-05T05:59:27.785Z,84.00
2018-11-05T06:00:27.780Z,100.00
2018-11-05T06:01:27.784Z,112.00
2018-11-05T06:02:27.805Z,128.00
2018-11-05T06:03:27.771Z,148.00
2018-11-05T06:04:27.762Z,164.00
2018-11-05T06:05:27.758Z,184.00
2018-11-05T06:06:27.787Z,204.00
2018-11-05T06:07:27.779Z,228.00
2018-11-05T06:08:27.766Z,256.00
2018-11-05T06:09:27.741Z,280.00
2018-11-05T06:10:27.738Z,308.00
2018-11-05T06:11:27.730Z,332.00
2018-11-05T06:12:27.754Z,364.00
2018-11-05T06:13:27.723Z,388.00
2018-11-05T06:14:27.714Z,416.00
2018-11-05T06:15:28.925Z,444.00
2018-11-05T06:16:27.703Z,476.00
2018-11-05T06:17:27.731Z,520.00
2018-11-05T06:18:27.696Z,564.00
2018-11-05T06:19:27.694Z,608.00
2018-11-05T06:20:27.687Z,668.00
2018-11-05T06:21:27.687Z,720.00
2018-11-05T06:22:27.708Z,776.00
2018-11-05T06:23:27.692Z,816.00
2018-11-05T06:24:27.668Z,860.00
2018-11-05T06:25:27.671Z,904.00
2018-11-05T06:26:27.662Z,956.00
2018-11-05T06:27:27.684Z,1004.00
2018-11-05T06:28:27.686Z,1080.00
2018-11-05T06:29:27.644Z,1156.00
2018-11-05T06:30:27.640Z,1244.00
2018-11-05T06:31:27.639Z,1308.00
2018-11-05T06:32:27.660Z,1400.00
2018-11-05T06:33:27.627Z,1480.00
2018-11-05T06:34:27.619Z,1564.00
2018-11-05T06:35:27.757Z,1612.00
2018-11-05T06:36:27.612Z,1636.00
2018-11-05T06:37:27.657Z,1672.00
2018-11-05T06:38:27.600Z,1768.00
2018-11-05T06:39:27.592Z,1792.00
2018-11-05T06:40:27.592Z,1868.00
2018-11-05T06:41:27.699Z,1908.00
2018-11-05T06:42:27.612Z,1944.00
2018-11-05T06:43:27.572Z,2028.00
2018-11-05T06:44:27.573Z,2156.00
2018-11-05T06:45:27.575Z,2248.00
2018-11-05T06:46:27.565Z,2400.00
2018-11-05T06:47:27.593Z,2444.00
2018-11-05T06:48:27.553Z,2492.00
2018-11-05T06:49:27.553Z,2572.00
2018-11-05T06:50:27.541Z,2668.00
2018-11-05T06:51:27.587Z,2748.00
2018-11-05T06:52:27.569Z,2828.00
2018-11-05T06:53:27.533Z,2956.00
2018-11-05T06:54:27.529Z,3040.00
2018-11-05T06:55:27.525Z,3188.00
2018-11-05T06:56:27.523Z,3176.00
2018-11-05T06:57:27.583Z,3184.00
2018-11-05T06:58:28.023Z,3260.00
2018-11-05T06:59:27.510Z,3244.00
2018-11-05T07:00:27.504Z,3324.00
2018-11-05T07:01:27.497Z,3344.00
2018-11-05T07:02:27.568Z,3400.00
2018-11-05T07:03:27.491Z,3408.00
2018-11-05T07:04:27.485Z,3420.00
2018-11-05T07:05:27.485Z,3404.00
2018-11-05T07:06:27.478Z,3544.00
2018-11-05T07:07:27.501Z,3592.00
2018-11-05T07:08:27.504Z,3712.00
2018-11-05T07:09:27.467Z,3716.00
2018-11-05T07:10:27.462Z,3860.00
2018-11-05T07:11:27.472Z,3948.00
2018-11-05T07:12:27.449Z,4020.00
2018-11-05T07:13:27.478Z,4100.00
2018-11-05T07:14:27.445Z,4220.00
2018-11-05T07:15:27.444Z,4384.00
2018-11-05T07:16:27.438Z,4592.00
2018-11-05T07:17:27.461Z,4684.00
2018-11-05T07:18:27.556Z,4756.00
2018-11-05T07:19:27.446Z,4716.00
2018-11-05T07:20:27.422Z,4788.00
2018-11-05T07:21:27.419Z,4728.00
2018-11-05T07:22:27.419Z,4656.00
2018-11-05T07:23:27.439Z,4660.00
2018-11-05T07:24:27.408Z,4608.00
2018-11-05T07:25:27.402Z,4592.00
2018-11-05T07:26:27.425Z,4488.00
2018-11-05T07:27:27.430Z,4512.00
2018-11-05T07:28:27.422Z,4684.00
2018-11-05T07:29:27.390Z,4836.00
2018-11-05T07:30:27.387Z,5096.00
2018-11-05T07:31:27.384Z,5400.00
2018-11-05T07:32:27.379Z,5752.00
2018-11-05T07:33:27.440Z,6232.00
2018-11-05T07:34:27.436Z,6916.00
2018-11-05T07:35:27.369Z,7408.00
2018-11-05T07:36:27.372Z,7684.00
2018-11-05T07:37:27.369Z,8188.00
2018-11-05T07:38:27.455Z,8212.00
2018-11-05T07:39:27.357Z,8720.00
2018-11-05T07:40:27.357Z,9128.00
2018-11-05T07:41:27.356Z,9140.00
2018-11-05T07:42:27.351Z,9348.00
2018-11-05T07:43:27.387Z,9408.00
2018-11-05T07:44:27.348Z,8880.00
2018-11-05T07:45:27.343Z,8840.00
2018-11-05T07:46:27.337Z,8788.00
2018-11-05T07:47:27.336Z,8264.00
2018-11-05T07:48:27.372Z,8120.00
2018-11-05T07:49:27.336Z,7908.00
2018-11-05T07:50:27.456Z,7964.00
2018-11-05T07:51:27.331Z,7556.00
2018-11-05T07:52:27.331Z,7840.00
2018-11-05T07:53:27.357Z,7460.00
2018-11-05T07:54:27.324Z,7160.00
2018-11-05T07:55:27.329Z,6904.00
2018-11-05T07:56:27.324Z,6740.00
2018-11-05T07:57:27.319Z,6320.00
2018-11-05T07:58:27.345Z,6080.00
2018-11-05T07:59:27.318Z,5888.00
2018-11-05T08:00:27.317Z,5900.00
2018-11-05T08:01:27.317Z,5860.00
2018-11-05T08:02:27.314Z,6044.00
2018-11-05T08:03:27.344Z,6376.00
2018-11-05T08:04:27.316Z,6716.00
2018-11-05T08:05:27.314Z,7144.00
2018-11-05T08:06:27.314Z,7484.00
2018-11-05T08:07:27.314Z,7720.00
2018-11-05T08:08:27.391Z,8020.00
2018-11-05T08:09:27.312Z,8248.00
2018-11-05T08:10:27.312Z,8296.00
2018-11-05T08:11:27.316Z,8232.00
2018-11-05T08:12:27.313Z,8544.00
2018-11-05T08:13:27.342Z,8272.00
2018-11-05T08:14:27.411Z,8528.00
2018-11-05T08:15:27.310Z,8268.00
2018-11-05T08:16:27.310Z,8192.00
2018-11-05T08:17:27.308Z,8048.00
2018-11-05T08:18:27.341Z,7728.00
2018-11-05T08:19:27.302Z,7828.00
2018-11-05T08:20:27.310Z,7968.00
2018-11-05T08:21:27.304Z,7764.00
2018-11-05T08:22:27.310Z,8296.00
2018-11-05T08:23:27.341Z,8560.00
2018-11-05T08:24:27.308Z,8872.00
2018-11-05T08:25:27.310Z,9464.00
2018-11-05T08:26:27.309Z,10036.00
2018-11-05T08:27:27.308Z,10240.00
2018-11-05T08:28:27.337Z,10628.00
2018-11-05T08:29:27.306Z,10752.00
2018-11-05T08:30:27.312Z,11160.00
2018-11-05T08:31:27.306Z,11176.00
2018-11-05T08:32:27.303Z,11120.00
2018-11-05T08:33:27.334Z,11148.00
2018-11-05T08:34:27.465Z,11636.00
2018-11-05T08:35:27.309Z,11680.00
2018-11-05T08:36:27.311Z,12028.00
2018-11-05T08:37:27.305Z,11808.00
2018-11-05T08:38:27.466Z,12196.00
2018-11-05T08:39:27.301Z,12352.00
2018-11-05T08:40:27.421Z,11192.00
2018-11-05T08:41:27.306Z,9492.00
2018-11-05T08:42:27.302Z,9896.00
2018-11-05T08:43:27.329Z,10348.00
2018-11-05T08:44:27.300Z,11472.00
2018-11-05T08:45:27.309Z,11072.00
2018-11-05T08:46:27.305Z,9948.00
2018-11-05T08:47:27.306Z,8688.00
2018-11-05T08:48:27.333Z,7228.00
2018-11-05T08:49:27.306Z,6620.00
2018-11-05T08:50:27.361Z,6620.00
2018-11-05T08:51:27.599Z,7212.00
2018-11-05T08:52:27.318Z,8024.00
2018-11-05T08:53:27.341Z,8340.00
2018-11-05T08:54:27.314Z,9392.00
2018-11-05T08:55:27.324Z,10820.00
2018-11-05T08:56:27.321Z,9800.00
2018-11-05T08:57:27.384Z,8708.00
2018-11-05T08:58:27.356Z,8180.00
2018-11-05T08:59:27.327Z,8240.00
2018-11-05T09:00:27.327Z,8544.00
2018-11-05T09:01:27.331Z,9316.00
2018-11-05T09:02:27.336Z,10164.00
2018-11-05T09:03:27.368Z,10932.00
2018-11-05T09:04:27.348Z,11792.00
2018-11-05T09:05:27.344Z,10924.00
2018-11-05T09:06:27.340Z,10168.00
2018-11-05T09:07:27.352Z,9996.00
2018-11-05T09:08:27.379Z,9648.00
2018-11-05T09:09:28.905Z,9388.00
2018-11-05T09:10:27.524Z,9092.00
2018-11-05T09:11:27.698Z,8332.00
2018-11-05T09:12:27.439Z,8376.00
2018-11-05T09:13:27.627Z,8400.00
2018-11-05T09:14:27.364Z,7932.00
2018-11-05T09:15:27.373Z,8100.00
2018-11-05T09:16:29.409Z,7936.00
2018-11-05T09:17:27.368Z,8972.00
2018-11-05T09:18:27.748Z,8936.00
2018-11-05T09:19:28.036Z,9188.00
2018-11-05T09:20:31.121Z,10212.00
2018-11-05T09:21:27.376Z,11092.00
2018-11-05T09:22:27.376Z,10700.00
2018-11-05T09:23:27.400Z,10584.00
2018-11-05T09:24:28.978Z,10708.00
2018-11-05T09:25:31.407Z,10964.00
2018-11-05T09:26:27.380Z,11248.00
2018-11-05T09:27:27.666Z,11364.00
2018-11-05T09:28:28.056Z,11784.00
2018-11-05T09:29:27.392Z,11844.00
2018-11-05T09:30:27.404Z,12000.00
2018-11-05T09:31:27.402Z,12432.00
2018-11-05T09:32:27.393Z,13496.00
2018-11-05T09:33:27.422Z,12980.00
2018-11-05T09:34:27.498Z,13476.00
2018-11-05T09:35:29.155Z,15548.00
2018-11-05T09:36:27.398Z,16364.00
2018-11-05T09:37:27.402Z,15336.00
2018-11-05T09:38:27.427Z,15652.00
2018-11-05T09:39:27.412Z,30560.00
2018-11-05T09:40:27.402Z,33216.00
2018-11-05T09:41:27.410Z,23936.00
2018-11-05T09:42:27.411Z,21120.00
2018-11-05T09:43:27.436Z,21184.00
2018-11-05T09:44:27.415Z,18304.00
2018-11-05T09:45:27.417Z,22496.00
2018-11-05T09:46:27.418Z,27264.00
2018-11-05T09:47:27.424Z,35712.00
2018-11-05T09:48:27.450Z,30368.00
2018-11-05T09:49:27.452Z,41216.00
2018-11-05T09:50:27.439Z,44000.00
2018-11-05T09:51:27.434Z,37856.00
2018-11-05T09:52:27.445Z,32896.00
2018-11-05T09:53:27.476Z,36384.00
2018-11-05T09:54:27.451Z,39680.00
2018-11-05T09:55:27.476Z,38816.00
2018-11-05T09:56:27.461Z,39040.00
2018-11-05T09:57:27.471Z,37344.00
2018-11-05T09:58:27.507Z,33536.00
2018-11-05T09:59:27.487Z,24864.00
2018-11-05T10:00:27.495Z,24256.00
2018-11-05T10:01:27.503Z,17824.00
2018-11-05T10:02:27.511Z,14932.00
2018-11-05T10:03:27.813Z,19392.00
2018-11-05T10:04:27.674Z,18368.00
2018-11-05T10:05:27.579Z,31104.00
2018-11-05T10:06:27.568Z,22240.00
2018-11-05T10:07:27.552Z,33952.00
2018-11-05T10:08:27.592Z,38016.00
2018-11-05T10:09:27.605Z,19264.00
2018-11-05T10:10:27.639Z,16708.00
2018-11-05T10:11:27.581Z,18720.00
2018-11-05T10:12:27.595Z,26048.00
2018-11-05T10:13:27.632Z,37216.00
2018-11-05T10:14:27.612Z,35936.00
2018-11-05T10:15:27.619Z,35616.00
2018-11-05T10:16:27.639Z,30176.00
2018-11-05T10:17:27.636Z,26560.00
2018-11-05T10:18:27.675Z,20992.00
2018-11-05T10:19:27.655Z,15668.00
2018-11-05T10:20:27.663Z,15172.00
2018-11-05T10:21:27.671Z,15296.00
2018-11-05T10:22:27.677Z,18208.00
2018-11-05T10:23:27.716Z,15764.00
2018-11-05T10:24:27.767Z,16164.00
2018-11-05T10:25:27.701Z,15952.00
2018-11-05T10:26:27.713Z,18624.00
2018-11-05T10:27:27.724Z,19104.00
2018-11-05T10:28:27.756Z,16996.00
2018-11-05T10:29:27.733Z,16952.00
2018-11-05T10:30:27.741Z,17920.00
2018-11-05T10:31:27.784Z,18624.00
2018-11-05T10:32:27.750Z,18336.00
2018-11-05T10:33:27.823Z,18656.00
2018-11-05T10:34:27.760Z,19616.00
2018-11-05T10:35:27.765Z,20000.00
2018-11-05T10:36:27.773Z,19808.00
2018-11-05T10:37:27.781Z,19904.00
2018-11-05T10:38:27.823Z,20736.00
2018-11-05T10:39:27.786Z,20896.00
2018-11-05T10:40:27.850Z,21600.00
2018-11-05T10:41:27.795Z,23104.00
2018-11-05T10:42:27.798Z,22688.00
2018-11-05T10:43:27.837Z,23360.00
2018-11-05T10:44:27.833Z,25152.00
2018-11-05T10:45:27.814Z,26720.00
2018-11-05T10:46:27.816Z,26496.00
2018-11-05T10:47:27.817Z,26752.00
2018-11-05T10:48:27.827Z,26208.00
2018-11-05T10:49:27.858Z,24192.00
2018-11-05T10:50:27.873Z,23200.00
2018-11-05T10:51:27.937Z,23392.00
2018-11-05T10:52:27.879Z,20544.00
2018-11-05T10:53:27.878Z,20448.00
2018-11-05T10:54:27.850Z,20960.00
2018-11-05T10:55:27.854Z,21856.00
2018-11-05T10:56:27.859Z,22880.00
2018-11-05T10:57:27.866Z,22848.00
2018-11-05T10:58:27.900Z,23328.00
2018-11-05T10:59:27.876Z,23648.00
2018-11-05T11:00:27.889Z,24896.00
2018-11-05T11:01:27.882Z,24576.00
2018-11-05T11:02:27.886Z,24032.00
2018-11-05T11:03:27.951Z,23968.00
2018-11-05T11:04:27.948Z,23616.00
2018-11-05T11:05:27.903Z,23072.00
2018-11-05T11:06:27.907Z,23552.00
2018-11-05T11:07:27.916Z,23392.00
2018-11-05T11:08:27.948Z,25504.00
2018-11-05T11:09:27.931Z,25472.00
2018-11-05T11:10:27.927Z,26176.00
2018-11-05T11:11:27.938Z,26784.00
2018-11-05T11:12:27.939Z,26560.00
2018-11-05T11:13:27.971Z,26272.00
2018-11-05T11:14:27.950Z,25792.00
2018-11-05T11:15:27.957Z,25984.00
2018-11-05T11:16:27.964Z,25024.00
2018-11-05T11:17:27.972Z,24064.00
2018-11-05T11:18:28.018Z,23392.00
2018-11-05T11:19:27.991Z,22400.00
2018-11-05T11:20:27.988Z,21792.00
2018-11-05T11:21:27.996Z,22080.00
2018-11-05T11:22:28.001Z,21856.00
2018-11-05T11:23:28.053Z,21760.00
2018-11-05T11:24:28.013Z,20992.00
2018-11-05T11:25:28.014Z,20128.00
2018-11-05T11:26:28.018Z,20000.00
2018-11-05T11:27:28.082Z,20160.00
2018-11-05T11:28:28.196Z,21440.00
2018-11-05T11:29:28.150Z,22944.00
2018-11-05T11:30:28.046Z,22560.00
2018-11-05T11:31:28.054Z,25216.00
2018-11-05T11:32:28.044Z,25568.00
2018-11-05T11:33:28.087Z,24544.00
2018-11-05T11:34:28.065Z,25248.00
2018-11-05T11:35:28.071Z,26304.00
2018-11-05T11:36:28.086Z,26656.00
2018-11-05T11:37:28.078Z,25536.00
2018-11-05T11:38:28.115Z,26176.00
2018-11-05T11:39:28.090Z,29024.00
2018-11-05T11:40:28.094Z,28384.00
2018-11-05T11:41:28.101Z,27968.00
2018-11-05T11:42:28.107Z,28320.00
2018-11-05T11:43:28.142Z,28064.00
2018-11-05T11:44:28.118Z,28256.00
2018-11-05T11:45:28.122Z,28800.00
2018-11-05T11:46:28.126Z,27840.00
2018-11-05T11:47:28.133Z,27584.00
2018-11-05T11:48:28.174Z,27136.00
2018-11-05T11:49:28.146Z,27840.00
2018-11-05T11:50:28.151Z,27968.00
2018-11-05T11:51:28.158Z,27360.00
2018-11-05T11:52:28.236Z,26816.00
2018-11-05T11:53:28.228Z,26016.00
2018-11-05T11:54:28.180Z,25760.00
2018-11-05T11:55:28.183Z,20800.00
2018-11-05T11:56:28.186Z,25248.00
2018-11-05T11:57:28.194Z,25312.00
2018-11-05T11:58:28.282Z,25792.00
2018-11-05T11:59:28.209Z,25024.00
2018-11-05T12:00:28.230Z,25088.00
2018-11-05T12:01:28.270Z,24640.00
2018-11-05T12:02:28.257Z,26528.00
2018-11-05T12:03:28.256Z,25568.00
2018-11-05T12:04:28.296Z,25792.00
2018-11-05T12:05:28.397Z,25952.00
2018-11-05T12:06:28.278Z,26272.00
2018-11-05T12:07:28.261Z,26816.00
2018-11-05T12:08:28.297Z,26720.00
2018-11-05T12:09:28.275Z,27328.00
2018-11-05T12:10:28.280Z,27328.00
2018-11-05T12:11:28.281Z,28896.00
2018-11-05T12:12:28.291Z,29472.00
2018-11-05T12:13:28.332Z,30304.00
2018-11-05T12:14:28.353Z,29888.00
2018-11-05T12:15:28.315Z,31200.00
2018-11-05T12:16:28.321Z,29728.00
2018-11-05T12:17:28.328Z,31200.00
2018-11-05T12:18:28.365Z,31424.00
2018-11-05T12:19:28.340Z,32736.00
2018-11-05T12:20:28.386Z,32160.00
2018-11-05T12:21:28.356Z,29984.00
2018-11-05T12:22:28.364Z,28768.00
2018-11-05T12:23:28.444Z,25152.00
2018-11-05T12:24:28.442Z,25440.00
2018-11-05T12:25:28.393Z,24288.00
2018-11-05T12:26:28.396Z,24096.00
2018-11-05T12:27:28.408Z,25088.00
2018-11-05T12:28:28.461Z,22944.00
2018-11-05T12:29:28.422Z,21504.00
2018-11-05T12:30:28.425Z,20352.00
2018-11-05T12:31:28.433Z,20096.00
2018-11-05T12:32:28.474Z,20896.00